Time;durP1;ratioP1;P1;durP2;ratioP2;P2;SDS_P1;SDS_P2;PMS_P1;PMS_P2;Temp;Humidity;BMP_temperature;BMP_pressure;BME280_temperature;BME280_humidity;BME280_pressure;Samples;Min_cycle;Max_cycle;Signal;HPM_P1;HPM_P2
2023/03/02 00:00:41;;;;;;;28.57;22.97;;;;;;;3.51;86.99;96465.19;5074239;28;20260;-55
2023/03/02 00:03:12;;;;;;;29.87;22.53;;;;;;;3.51;86.14;96465.19;5074595;28;20209;-56
2023/03/02 00:05:39;;;;;;;27.30;22.43;;;;;;;3.41;86.47;96461.53;5074560;28;20210;-55
2023/03/02 00:08:08;;;;;;;23.80;20.80;;;;;;;3.51;89.17;96460.81;5074953;28;20306;-55
2023/03/02 00:10:35;;;;;;;29.57;23.30;;;;;;;3.36;87.37;96463.66;5073574;28;20256;-55
2023/03/02 00:13:03;;;;;;;26.43;22.80;;;;;;;3.32;86.16;96459.56;5073468;28;20226;-56
2023/03/02 00:15:30;;;;;;;26.80;21.57;;;;;;;3.34;86.70;96447.22;5073082;28;20206;-56
2023/03/02 00:17:56;;;;;;;30.07;22.73;;;;;;;3.34;87.70;96457.66;5072025;28;20716;-56
2023/03/02 00:20:23;;;;;;;29.27;22.80;;;;;;;3.31;88.54;96460.50;5072873;28;20580;-56
2023/03/02 00:22:50;;;;;;;26.37;22.13;;;;;;;3.28;88.05;96464.16;5072758;28;20647;-55
2023/03/02 00:25:17;;;;;;;26.70;22.17;;;;;;;3.29;89.18;96455.38;5072851;28;20198;-55
2023/03/02 00:27:44;;;;;;;27.57;21.93;;;;;;;3.38;89.39;96457.38;5072889;28;20202;-56
2023/03/02 00:30:13;;;;;;;31.73;23.60;;;;;;;3.32;87.23;96449.94;5072688;28;20229;-54
2023/03/02 00:32:40;;;;;;;26.77;22.17;;;;;;;3.28;87.71;96451.09;5073823;28;20379;-57
2023/03/02 00:35:09;;;;;;;27.43;22.67;;;;;;;3.29;88.11;96455.38;5073529;28;20213;-55
2023/03/02 00:37:35;;;;;;;28.20;21.67;;;;;;;3.37;90.08;96452.22;5073046;28;20308;-56
2023/03/02 00:40:04;;;;;;;29.27;22.53;;;;;;;3.34;88.25;96452.44;5072700;28;20530;-56
2023/03/02 00:42:30;;;;;;;29.60;22.37;;;;;;;3.40;88.23;96459.88;5073014;28;20198;-56
2023/03/02 00:45:00;;;;;;;26.63;22.23;;;;;;;3.38;88.24;96459.13;5072260;28;20347;-56
2023/03/02 00:47:28;;;;;;;25.80;21.43;;;;;;;3.41;88.04;96456.31;5071970;28;20651;-55
2023/03/02 00:49:57;;;;;;;25.57;21.43;;;;;;;3.51;88.91;96449.50;5071722;28;20202;-56
2023/03/02 00:52:24;;;;;;;26.20;21.17;;;;;;;3.48;88.13;96454.94;5072610;28;20210;-56
2023/03/02 00:54:50;;;;;;;27.87;23.17;;;;;;;3.38;88.05;96448.69;5071783;28;20202;-55
2023/03/02 00:57:17;;;;;;;25.13;20.73;;;;;;;3.48;88.04;96439.28;5072827;28;20215;-57
2023/03/02 00:59:43;;;;;;;28.07;21.40;;;;;;;3.56;89.66;96436.97;5071346;28;20210;-55
2023/03/02 01:02:10;;;;;;;27.17;22.03;;;;;;;3.52;88.52;96427.66;5072068;28;20207;-56
2023/03/02 01:04:42;;;;;;;30.23;22.77;;;;;;;3.58;88.65;96415.97;5072269;28;20198;-56
2023/03/02 01:07:12;;;;;;;28.97;23.40;;;;;;;3.47;87.77;96421.94;5072193;28;20207;-56
2023/03/02 01:09:40;;;;;;;29.70;22.00;;;;;;;3.52;88.57;96411.97;5072164;28;20572;-56
2023/03/02 01:12:09;;;;;;;27.13;22.47;;;;;;;3.48;88.41;96413.97;5071406;28;20676;-55
2023/03/02 01:14:36;;;;;;;26.73;23.20;;;;;;;3.43;87.53;96421.31;5071923;28;20639;-55
2023/03/02 01:17:03;;;;;;;26.70;22.10;;;;;;;3.43;88.85;96410.00;5071239;28;20275;-54
2023/03/02 01:19:30;;;;;;;30.27;22.90;;;;;;;3.37;86.97;96416.47;5071747;28;20667;-55
2023/03/02 01:22:02;;;;;;;27.40;23.17;;;;;;;3.32;88.57;96407.28;5076166;28;20536;-56
2023/03/02 01:24:29;;;;;;;25.37;21.10;;;;;;;3.40;88.89;96411.03;5083745;28;20214;-55
2023/03/02 01:26:55;;;;;;;27.60;22.13;;;;;;;3.39;88.75;96411.16;5083022;28;20283;-54
2023/03/02 01:29:23;;;;;;;27.80;22.10;;;;;;;3.37;89.14;96416.47;5075269;28;20202;-55
2023/03/02 01:31:50;;;;;;;28.47;22.20;;;;;;;3.53;89.69;96397.13;5071530;28;20202;-55
2023/03/02 01:34:16;;;;;;;30.20;23.53;;;;;;;3.44;88.58;96390.75;5071613;28;20221;-56
2023/03/02 01:36:44;;;;;;;27.10;22.77;;;;;;;3.38;87.81;96383.34;5071648;28;20233;-55
2023/03/02 01:39:14;;;;;;;30.13;22.83;;;;;;;3.45;88.30;96395.06;5071873;28;20246;-55
2023/03/02 01:41:41;;;;;;;27.50;20.83;;;;;;;3.45;90.34;96392.44;5071177;28;20268;-54
2023/03/02 01:44:35;;;;;;;27.77;23.20;;;;;;;3.47;88.58;96393.19;5071570;28;20213;-55
2023/03/02 01:47:02;;;;;;;26.87;22.60;;;;;;;3.42;88.36;96393.50;5070455;28;20519;-56
2023/03/02 01:49:37;;;;;;;28.17;22.67;;;;;;;3.46;87.88;96394.13;5071454;28;20199;-56
2023/03/02 01:52:04;;;;;;;28.20;21.73;;;;;;;3.50;88.37;96380.75;5071351;28;20205;-56
2023/03/02 01:54:30;;;;;;;29.13;23.80;;;;;;;3.39;87.70;96382.41;5071378;28;20205;-54
2023/03/02 01:56:58;;;;;;;30.87;23.37;;;;;;;3.40;87.92;96391.94;5071392;28;20225;-55
2023/03/02 01:59:26;;;;;;;27.93;23.27;;;;;;;3.37;89.37;96390.34;5070507;28;20207;-54
2023/03/02 02:01:57;;;;;;;28.23;22.67;;;;;;;3.37;88.39;96368.59;5071110;28;20201;-56
2023/03/02 02:04:25;;;;;;;29.77;22.47;;;;;;;3.40;87.97;96371.03;5072328;28;20203;-56
2023/03/02 02:06:55;;;;;;;27.30;22.17;;;;;;;3.30;87.90;96359.50;5074579;28;20202;-56
2023/03/02 02:09:24;;;;;;;27.70;21.93;;;;;;;3.45;88.54;96361.06;5074497;28;20203;-56
2023/03/02 02:11:50;;;;;;;27.03;20.73;;;;;;;3.55;89.28;96361.25;5071877;28;20237;-54
2023/03/02 02:14:17;;;;;;;29.37;23.43;;;;;;;3.52;87.78;96362.31;5071391;28;20270;-56
2023/03/02 02:16:43;;;;;;;29.50;22.63;;;;;;;3.40;87.53;96371.03;5070357;28;20222;-56
2023/03/02 02:19:31;;;;;;;26.07;21.67;;;;;;;3.46;88.70;96362.75;5070940;28;21393;-55
2023/03/02 02:21:57;;;;;;;29.70;22.90;;;;;;;3.45;88.01;96355.84;5070981;28;20208;-55
2023/03/02 02:24:28;;;;;;;27.67;22.40;;;;;;;3.46;87.82;96353.13;5070607;28;20219;-56
2023/03/02 02:26:57;;;;;;;31.33;24.57;;;;;;;3.36;87.13;96356.50;5070547;28;20530;-56
2023/03/02 02:29:25;;;;;;;29.33;23.60;;;;;;;3.28;87.45;96353.56;5070326;28;20194;-55
2023/03/02 02:31:55;;;;;;;33.47;23.77;;;;;;;3.25;87.71;96364.22;5070594;28;20200;-55
2023/03/02 02:34:25;;;;;;;28.73;23.23;;;;;;;3.29;89.29;96368.31;5070256;28;20207;-56
2023/03/02 02:36:55;;;;;;;31.07;24.57;;;;;;;3.26;88.37;96363.31;5070503;28;20234;-56
2023/03/02 02:39:24;;;;;;;33.37;24.70;;;;;;;3.20;88.42;96363.69;5070339;28;20214;-56
2023/03/02 02:41:55;;;;;;;30.17;23.70;;;;;;;3.24;88.82;96358.16;5070609;28;20198;-56
2023/03/02 02:44:22;;;;;;;28.90;23.00;;;;;;;3.19;88.67;96356.81;5070555;28;20201;-56
2023/03/02 02:46:48;;;;;;;31.63;25.03;;;;;;;3.04;89.02;96361.31;5070015;28;20212;-56
2023/03/02 02:49:25;;;;;;;28.37;22.90;;;;;;;3.06;88.63;96354.19;5070154;28;20230;-55
2023/03/02 02:51:51;;;;;;;29.03;22.97;;;;;;;3.10;89.60;96365.28;5070258;28;20205;-55
2023/03/02 02:54:18;;;;;;;29.20;23.30;;;;;;;3.09;89.29;96353.97;5070472;28;20213;-56
2023/03/02 02:56:46;;;;;;;27.03;21.73;;;;;;;3.18;91.03;96352.53;5069405;28;20650;-55
2023/03/02 02:59:17;;;;;;;30.80;23.53;;;;;;;3.17;90.00;96350.84;5069681;28;20210;-56
2023/03/02 03:01:44;;;;;;;29.50;23.23;;;;;;;3.25;92.42;96359.00;5070275;28;20213;-56
2023/03/02 03:04:13;;;;;;;31.40;24.50;;;;;;;3.20;89.21;96355.88;5070341;28;20649;-56
2023/03/02 03:06:52;;;;;;;29.00;22.23;;;;;;;3.29;91.43;96357.88;5069979;28;20733;-56
2023/03/02 03:09:19;;;;;;;28.00;22.90;;;;;;;3.23;91.25;96345.19;5070454;28;20234;-56
2023/03/02 03:11:48;;;;;;;26.00;21.67;;;;;;;3.45;92.33;96348.00;5070557;28;20202;-56
2023/03/02 03:14:18;;;;;;;30.43;22.23;;;;;;;3.40;91.74;96352.72;5070084;28;20197;-56
2023/03/02 03:16:47;;;;;;;29.67;24.10;;;;;;;3.28;89.25;96361.41;5069272;28;20209;-56
2023/03/02 03:19:18;;;;;;;30.73;24.60;;;;;;;3.33;89.92;96356.72;5069714;28;20631;-56
2023/03/02 03:21:45;;;;;;;29.60;24.80;;;;;;;3.21;89.01;96360.16;5070091;28;20634;-55
2023/03/02 03:24:11;;;;;;;29.63;23.63;;;;;;;3.31;91.06;96361.19;5073166;28;20216;-56
2023/03/02 03:26:38;;;;;;;29.67;23.40;;;;;;;3.31;89.67;96364.66;5073228;28;20220;-56
2023/03/02 03:29:06;;;;;;;31.37;24.93;;;;;;;3.26;89.46;96363.31;5073991;28;20210;-54
2023/03/02 03:31:34;;;;;;;32.80;25.97;;;;;;;3.29;89.58;96357.88;5074102;28;21301;-56
2023/03/02 03:34:01;;;;;;;31.10;24.53;;;;;;;3.20;91.74;96361.09;5073619;28;20674;-56
2023/03/02 03:36:28;;;;;;;33.33;26.53;;;;;;;3.16;89.97;96364.84;5073715;28;20213;-56
2023/03/02 03:38:55;;;;;;;32.13;24.97;;;;;;;3.12;89.99;96363.41;5073471;28;20235;-55
2023/03/02 03:41:22;;;;;;;33.50;26.53;;;;;;;3.13;90.25;96367.66;5073690;28;20582;-54
2023/03/02 03:43:48;;;;;;;34.00;26.13;;;;;;;3.11;92.32;96372.19;5073943;28;20198;-56
2023/03/02 03:46:15;;;;;;;31.80;24.77;;;;;;;3.12;90.64;96373.84;5073674;28;20209;-56
2023/03/02 03:48:43;;;;;;;33.33;25.43;;;;;;;3.11;90.42;96373.03;5072327;28;20571;-56
2023/03/02 03:51:09;;;;;;;34.37;26.43;;;;;;;3.03;90.74;96374.47;5073948;28;20275;-56
2023/03/02 03:53:38;;;;;;;29.27;23.37;;;;;;;3.18;93.34;96374.28;5073466;28;20210;-56
2023/03/02 03:56:06;;;;;;;33.60;25.53;;;;;;;3.15;91.29;96373.66;5073791;28;20230;-55
2023/03/02 03:58:32;;;;;;;31.60;25.67;;;;;;;3.21;91.37;96368.00;5073514;28;20226;-55
2023/03/02 04:00:59;;;;;;;29.93;23.90;;;;;;;3.36;93.88;96372.19;5072803;28;20219;-56
2023/03/02 04:03:26;;;;;;;33.20;24.57;;;;;;;3.41;91.65;96375.28;5074084;28;20205;-55
2023/03/02 04:05:53;;;;;;;32.80;25.13;;;;;;;3.39;91.35;96366.72;5073520;28;20555;-55
2023/03/02 04:08:20;;;;;;;31.40;24.20;;;;;;;3.56;93.33;96369.00;5073331;28;20198;-55
2023/03/02 04:10:46;;;;;;;32.70;24.93;;;;;;;3.58;91.58;96366.28;5072997;28;20535;-55
2023/03/02 04:13:13;;;;;;;33.90;27.67;;;;;;;3.50;90.44;96378.13;5073670;28;20218;-56
2023/03/02 04:15:41;;;;;;;30.90;24.13;;;;;;;3.67;91.51;96373.47;5072642;28;20208;-57
2023/03/02 04:18:08;;;;;;;31.50;23.23;;;;;;;3.70;92.62;96374.09;5073518;28;20225;-56
2023/03/02 04:20:36;;;;;;;30.13;24.30;;;;;;;3.82;94.03;96382.88;5072873;28;20222;-55
2023/03/02 04:23:03;;;;;;;33.63;25.40;;;;;;;3.72;91.78;96379.25;5073174;28;20202;-56
2023/03/02 04:25:30;;;;;;;28.70;23.40;;;;;;;3.89;92.63;96389.34;5072825;28;20206;-56
2023/03/02 04:27:57;;;;;;;27.93;22.77;;;;;;;3.89;92.31;96392.81;5073251;28;20202;-56
2023/03/02 04:30:25;;;;;;;33.03;26.70;;;;;;;3.74;91.69;96393.03;5074111;28;20212;-56
2023/03/02 04:32:52;;;;;;;33.10;27.13;;;;;;;3.81;90.25;96399.50;5075172;28;20199;-56
2023/03/02 04:35:19;;;;;;;32.27;26.00;;;;;;;3.78;91.72;96389.25;5075164;28;20202;-56
2023/03/02 04:37:46;;;;;;;32.87;25.37;;;;;;;3.76;92.18;96391.97;5075537;28;20295;-55
2023/03/02 04:40:15;;;;;;;33.40;25.87;;;;;;;3.67;91.24;96392.63;5074100;28;20207;-56
2023/03/02 04:42:43;;;;;;;31.77;26.07;;;;;;;3.63;91.54;96385.94;5073942;28;20299;-56
2023/03/02 04:45:10;;;;;;;32.37;26.23;;;;;;;3.51;91.90;96387.63;5073518;28;20206;-56
2023/03/02 04:47:38;;;;;;;34.00;28.03;;;;;;;3.51;90.63;96392.00;5072128;28;20226;-56
2023/03/02 04:50:06;;;;;;;34.50;26.90;;;;;;;3.60;90.42;96390.53;5072554;28;20225;-56
2023/03/02 04:52:32;;;;;;;34.20;26.33;;;;;;;3.48;92.22;96392.22;5072986;28;20199;-56
2023/03/02 04:54:58;;;;;;;32.13;26.30;;;;;;;3.55;92.46;96387.41;5072783;28;20661;-56
2023/03/02 04:57:26;;;;;;;32.73;26.67;;;;;;;3.54;91.57;96386.59;5072650;28;20230;-56
2023/03/02 04:59:53;;;;;;;35.43;25.80;;;;;;;3.56;91.74;96389.06;5073062;28;20206;-56
2023/03/02 05:02:20;;;;;;;30.30;25.10;;;;;;;3.65;93.29;96385.84;5072823;28;20198;-55
2023/03/02 05:04:47;;;;;;;27.93;23.27;;;;;;;3.76;94.09;96391.97;5072290;28;20209;-55
2023/03/02 05:07:14;;;;;;;38.43;27.83;;;;;;;3.66;93.00;96401.41;5072061;28;20607;-56
2023/03/02 05:09:40;;;;;;;35.43;27.70;;;;;;;3.70;90.67;96399.41;5071698;28;20711;-55
2023/03/02 05:12:07;;;;;;;28.40;23.33;;;;;;;3.81;95.65;96392.50;5072454;28;20205;-55
2023/03/02 05:14:35;;;;;;;35.33;27.60;;;;;;;3.69;91.51;96388.09;5072102;28;20654;-56
2023/03/02 05:17:02;;;;;;;32.87;25.83;;;;;;;3.72;93.26;96394.94;5071903;28;20214;-56
2023/03/02 05:19:28;;;;;;;33.07;25.70;;;;;;;3.70;91.65;96395.03;5072380;28;20577;-57
2023/03/02 05:21:55;;;;;;;35.17;27.77;;;;;;;3.61;92.94;96398.28;5072533;28;20671;-57
2023/03/02 05:24:21;;;;;;;34.90;26.87;;;;;;;3.59;92.19;96400.16;5074031;28;20217;-57
2023/03/02 05:26:48;;;;;;;35.50;27.23;;;;;;;3.50;90.71;96411.28;5074349;28;20202;-57
2023/03/02 05:29:14;;;;;;;40.23;28.17;;;;;;;3.34;91.33;96410.63;5073774;28;20520;-58
2023/03/02 05:31:43;;;;;;;32.67;26.10;;;;;;;3.47;92.82;96406.25;5073997;28;20210;-57
2023/03/02 05:34:14;;;;;;;37.03;28.17;;;;;;;3.37;91.67;96410.41;5072264;28;20198;-57
2023/03/02 05:36:41;;;;;;;34.43;26.90;;;;;;;3.51;93.65;96418.97;5072090;28;20212;-57
2023/03/02 05:39:08;;;;;;;34.13;26.77;;;;;;;3.52;92.84;96425.06;5071180;28;20225;-56
2023/03/02 05:41:35;;;;;;;32.63;25.50;;;;;;;3.66;94.10;96422.31;5070754;28;20623;-57
2023/03/02 05:44:02;;;;;;;33.83;28.03;;;;;;;3.59;90.80;96421.06;5072094;28;20217;-57
2023/03/02 05:46:28;;;;;;;36.53;27.20;;;;;;;3.57;93.73;96425.59;5070876;28;20210;-56
2023/03/02 05:48:56;;;;;;;38.70;29.07;;;;;;;3.51;92.43;96432.06;5069943;28;20223;-56
2023/03/02 05:51:23;;;;;;;31.90;26.03;;;;;;;3.60;94.32;96441.06;5070641;28;20198;-57
2023/03/02 05:53:49;;;;;;;32.80;25.83;;;;;;;3.56;94.46;96431.75;5072188;28;20240;-57
2023/03/02 05:56:16;;;;;;;31.23;25.17;;;;;;;3.63;95.57;96437.38;5072673;28;20202;-56
2023/03/02 05:58:43;;;;;;;32.97;26.40;;;;;;;3.66;94.99;96434.56;5072886;28;20217;-57
2023/03/02 06:01:10;;;;;;;34.33;27.33;;;;;;;3.71;95.41;96440.31;5071905;28;20198;-56
2023/03/02 06:03:37;;;;;;;34.07;27.77;;;;;;;3.74;94.71;96440.94;5073647;28;20206;-56
2023/03/02 06:06:06;;;;;;;35.37;26.07;;;;;;;3.84;95.09;96449.81;5071458;28;20559;-56
2023/03/02 06:08:32;;;;;;;32.10;26.10;;;;;;;3.88;93.78;96443.44;5071452;28;20205;-63
2023/03/02 06:10:59;;;;;;;34.33;25.67;;;;;;;3.87;95.80;96446.97;5070551;28;20213;-59
2023/03/02 06:13:26;;;;;;;31.23;26.30;;;;;;;3.92;95.48;96457.97;5069438;28;20230;-57
2023/03/02 06:15:52;;;;;;;31.23;25.00;;;;;;;4.00;95.52;96458.25;5069913;28;20248;-57
2023/03/02 06:18:18;;;;;;;34.50;26.97;;;;;;;3.93;94.28;96454.38;5071280;28;20230;-57
2023/03/02 06:20:45;;;;;;;34.63;27.97;;;;;;;3.94;94.46;96453.47;5070099;28;20221;-57
2023/03/02 06:23:13;;;;;;;33.07;26.53;;;;;;;3.96;94.37;96454.19;5070642;28;20697;-57
2023/03/02 06:25:46;;;;;;;34.87;27.07;;;;;;;3.99;94.13;96461.00;5070258;28;20229;-56
2023/03/02 06:28:13;;;;;;;31.70;25.93;;;;;;;4.03;94.10;96464.22;5070515;28;21351;-57
2023/03/02 06:30:40;;;;;;;30.13;25.33;;;;;;;4.07;94.49;96478.78;5070298;28;20203;-57
2023/03/02 06:33:07;;;;;;;33.43;26.00;;;;;;;4.04;95.28;96484.22;5071273;28;20217;-57
2023/03/02 06:35:33;;;;;;;29.07;24.83;;;;;;;4.08;94.65;96480.44;5074538;28;20225;-57
2023/03/02 06:38:00;;;;;;;33.43;27.20;;;;;;;4.08;94.06;96480.44;5082165;28;20219;-58
2023/03/02 06:40:27;;;;;;;32.67;26.50;;;;;;;4.08;95.20;96490.88;5081845;28;20206;-57
2023/03/02 06:42:54;;;;;;;34.13;27.13;;;;;;;4.07;94.24;96478.78;5075038;28;20217;-57
2023/03/02 06:45:20;;;;;;;32.17;26.43;;;;;;;4.04;92.44;96485.03;5070224;28;20197;-57
2023/03/02 06:47:47;;;;;;;34.40;27.43;;;;;;;3.99;92.61;96482.75;5068840;28;20234;-57
2023/03/02 06:50:13;;;;;;;36.93;28.17;;;;;;;4.10;93.81;96494.25;5070260;28;20206;-58
2023/03/02 06:52:41;;;;;;;36.73;29.17;;;;;;;3.96;93.33;96492.59;5070881;28;20203;-57
2023/03/02 06:55:08;;;;;;;32.87;25.73;;;;;;;4.12;94.22;96497.59;5070803;28;20206;-57
2023/03/02 06:57:36;;;;;;;36.70;30.00;;;;;;;4.03;91.25;96500.84;5077715;28;20210;-57
2023/03/02 07:00:08;;;;;;;37.67;28.97;;;;;;;3.93;92.54;96501.47;5086209;28;20299;-59
2023/03/02 07:02:35;;;;;;;42.10;30.10;;;;;;;4.01;92.82;96501.78;5089171;28;20262;-57
2023/03/02 07:05:01;;;;;;;41.23;28.47;;;;;;;4.05;93.47;96512.88;5086274;28;20202;-57
2023/03/02 07:07:28;;;;;;;33.97;27.90;;;;;;;4.14;93.15;96512.25;5079954;28;20221;-58
2023/03/02 07:09:56;;;;;;;34.27;27.30;;;;;;;4.09;93.42;96521.34;5078647;28;20195;-56
2023/03/02 07:12:24;;;;;;;36.07;27.37;;;;;;;4.11;92.45;96520.28;5075594;28;20206;-58
2023/03/02 07:14:53;;;;;;;36.93;27.93;;;;;;;4.19;92.00;96525.00;5074583;28;20213;-57
2023/03/02 07:17:19;;;;;;;32.10;25.40;;;;;;;4.22;92.33;96530.00;5074149;28;20289;-57
2023/03/02 07:19:48;;;;;;;35.67;28.07;;;;;;;4.12;91.70;96531.59;5074123;28;20233;-57
2023/03/02 07:22:15;;;;;;;33.97;26.80;;;;;;;4.25;93.42;96529.81;5075439;28;20203;-57
2023/03/02 07:24:41;;;;;;;38.10;27.30;;;;;;;4.24;92.87;96533.38;5079489;28;20214;-57
2023/03/02 07:27:08;;;;;;;33.33;26.60;;;;;;;4.25;92.60;96535.88;5083644;28;20202;-57
2023/03/02 07:29:34;;;;;;;34.13;27.20;;;;;;;4.30;91.93;96532.94;5074791;28;20218;-57
2023/03/02 07:32:02;;;;;;;36.53;28.13;;;;;;;4.26;91.29;96534.94;5074191;28;20199;-56
2023/03/02 07:34:29;;;;;;;35.47;27.70;;;;;;;4.25;92.00;96535.88;5075677;28;20210;-57
2023/03/02 07:36:56;;;;;;;35.70;28.70;;;;;;;4.22;91.22;96535.25;5075517;28;20210;-57
2023/03/02 07:39:23;;;;;;;34.67;28.53;;;;;;;4.27;90.74;96541.84;5077904;28;20227;-57
2023/03/02 07:41:50;;;;;;;39.53;29.70;;;;;;;4.18;90.43;96545.09;5075623;28;20209;-57
2023/03/02 07:44:16;;;;;;;32.53;27.30;;;;;;;4.15;91.79;96544.47;5077396;28;20202;-57
2023/03/02 07:46:43;;;;;;;32.27;26.93;;;;;;;4.24;92.04;96555.16;5077340;28;20202;-57
2023/03/02 07:49:11;;;;;;;34.80;27.30;;;;;;;4.28;94.41;96555.78;5076030;28;20332;-58
2023/03/02 07:51:37;;;;;;;35.07;25.33;;;;;;;4.45;94.00;96547.59;5073625;28;20211;-57
2023/03/02 07:54:04;;;;;;;36.20;27.30;;;;;;;4.44;91.73;96553.75;5073886;28;20210;-56
2023/03/02 07:56:32;;;;;;;38.17;27.23;;;;;;;4.44;93.00;96556.38;5073584;28;20298;-57
2023/03/02 07:58:58;;;;;;;42.27;31.00;;;;;;;4.37;90.50;96555.97;5073447;28;20222;-57
2023/03/02 08:01:25;;;;;;;38.00;27.27;;;;;;;4.39;92.73;96556.69;5073332;28;20651;-57
2023/03/02 08:03:51;;;;;;;36.97;26.70;;;;;;;4.44;92.61;96553.75;5074569;28;20218;-56
2023/03/02 08:06:21;;;;;;;36.83;28.00;;;;;;;4.40;91.29;96554.91;5075728;28;20207;-56
2023/03/02 08:08:48;;;;;;;38.87;29.07;;;;;;;4.34;89.99;96555.34;5075499;28;20194;-57
2023/03/02 08:11:17;;;;;;;37.27;28.70;;;;;;;4.35;92.16;96555.25;5073406;28;20203;-57
2023/03/02 08:13:44;;;;;;;42.97;28.53;;;;;;;4.37;91.52;96557.75;5073713;28;20206;-57
2023/03/02 08:16:13;;;;;;;33.00;26.00;;;;;;;4.41;92.63;96556.59;5073619;28;20217;-57
2023/03/02 08:18:40;;;;;;;35.40;26.83;;;;;;;4.46;93.74;96564.97;5073702;28;20233;-57
2023/03/02 08:21:13;;;;;;;36.73;27.63;;;;;;;4.55;93.44;96558.22;5073322;28;20202;-57
2023/03/02 08:23:41;;;;;;;39.77;29.70;;;;;;;4.44;91.17;96564.22;5073328;28;20624;-57
2023/03/02 08:26:08;;;;;;;36.17;27.00;;;;;;;4.57;93.54;96557.16;5073399;28;20210;-57
2023/03/02 08:28:35;;;;;;;33.77;26.43;;;;;;;4.57;93.53;96565.03;5073543;28;20344;-57
2023/03/02 08:31:02;;;;;;;40.70;29.10;;;;;;;4.57;91.90;96558.97;5073212;28;20908;-57
2023/03/02 08:33:30;;;;;;;36.27;25.57;;;;;;;4.65;92.91;96564.50;5072820;28;20646;-57
2023/03/02 08:35:57;;;;;;;36.97;28.10;;;;;;;4.57;92.62;96554.56;5073406;28;20245;-57
2023/03/02 08:38:24;;;;;;;39.13;29.13;;;;;;;4.57;92.23;96564.22;5073371;28;20209;-56
2023/03/02 08:40:52;;;;;;;41.50;30.17;;;;;;;4.60;89.79;96571.84;5072295;28;20293;-57
2023/03/02 08:43:19;;;;;;;40.27;28.50;;;;;;;4.51;92.29;96568.09;5073154;28;20512;-57
2023/03/02 08:45:46;;;;;;;37.33;27.90;;;;;;;4.51;90.59;96575.94;5072805;28;20199;-57
2023/03/02 08:48:13;;;;;;;39.63;27.73;;;;;;;4.49;92.06;96573.44;5081115;28;20227;-57
2023/03/02 08:50:39;;;;;;;37.83;27.00;;;;;;;4.66;93.96;96572.25;5082597;28;20285;-57
2023/03/02 08:53:06;;;;;;;36.63;27.27;;;;;;;4.68;93.45;96575.59;5073937;28;20205;-57
2023/03/02 08:55:35;;;;;;;33.43;25.50;;;;;;;4.77;92.83;96581.97;5072191;28;20205;-57
2023/03/02 08:58:03;;;;;;;36.63;28.10;;;;;;;4.76;91.34;96578.50;5072258;28;20207;-57
2023/03/02 09:00:30;;;;;;;38.57;28.33;;;;;;;4.73;90.09;96572.66;5071302;28;20234;-56
2023/03/02 09:02:56;;;;;;;37.93;28.73;;;;;;;4.71;91.62;96574.56;5072139;28;20203;-55
2023/03/02 09:05:22;;;;;;;38.53;29.60;;;;;;;4.76;90.14;96568.03;5072329;28;20264;-57
2023/03/02 09:07:49;;;;;;;37.00;26.83;;;;;;;4.73;91.57;96570.88;5070826;28;20643;-57
2023/03/02 09:10:15;;;;;;;35.83;27.63;;;;;;;4.85;91.62;96566.56;5072453;28;20646;-57
2023/03/02 09:12:42;;;;;;;33.27;26.30;;;;;;;4.93;90.28;96567.66;5072177;28;20671;-57
2023/03/02 09:15:10;;;;;;;40.03;28.20;;;;;;;4.96;88.74;96575.28;5072377;28;20206;-57
2023/03/02 09:17:37;;;;;;;37.73;28.30;;;;;;;4.97;89.89;96576.13;5071583;28;20210;-57
2023/03/02 09:20:06;;;;;;;37.00;28.70;;;;;;;4.70;87.45;96578.94;5071721;28;20546;-57
2023/03/02 09:22:35;;;;;;;39.43;29.70;;;;;;;4.77;87.45;96569.72;5080159;28;20210;-58
2023/03/02 09:25:02;;;;;;;36.63;28.23;;;;;;;4.75;90.19;96576.81;5084274;28;20203;-57
2023/03/02 09:27:29;;;;;;;39.80;30.63;;;;;;;4.74;88.27;96575.16;5084781;28;20643;-57
2023/03/02 09:29:55;;;;;;;39.30;29.47;;;;;;;4.75;87.63;96576.81;5073902;28;20225;-56
2023/03/02 09:32:26;;;;;;;36.40;26.63;;;;;;;4.83;88.17;96577.13;5071045;28;20198;-56
2023/03/02 09:34:52;;;;;;;35.83;27.53;;;;;;;4.99;89.11;96580.31;5071847;28;20199;-56
2023/03/02 09:37:19;;;;;;;36.00;27.77;;;;;;;4.96;89.16;96584.94;5071079;28;20639;-56
2023/03/02 09:39:46;;;;;;;32.90;25.73;;;;;;;5.08;88.66;96585.84;5071699;28;20306;-57
2023/03/02 09:42:30;;;;;;;35.37;27.17;;;;;;;4.91;88.03;96593.13;5071600;28;20864;-57
2023/03/02 09:45:24;;;;;;;33.87;27.00;;;;;;;5.11;88.94;96593.47;5071797;28;20205;-56
2023/03/02 09:48:04;;;;;;;37.60;29.03;;;;;;;5.06;85.03;96590.38;5070422;28;20318;-57
2023/03/02 09:50:33;;;;;;;37.27;29.53;;;;;;;5.09;85.51;96598.00;5071508;28;20224;-55
2023/03/02 09:53:15;;;;;;;36.83;28.07;;;;;;;4.94;84.60;96606.03;5071391;28;20214;-57
2023/03/02 09:55:42;;;;;;;38.53;28.30;;;;;;;5.09;84.26;96609.31;5072262;28;20213;-56
2023/03/02 09:58:15;;;;;;;36.13;26.83;;;;;;;5.18;84.23;96606.03;5071520;28;20198;-56
2023/03/02 10:00:44;;;;;;;34.20;27.33;;;;;;;5.07;84.53;96608.59;5071170;28;20213;-57
2023/03/02 10:03:16;;;;;;;34.93;27.53;;;;;;;4.82;83.53;96604.25;5071329;28;20213;-56
2023/03/02 10:05:44;;;;;;;39.13;28.00;;;;;;;4.91;83.77;96600.16;5071382;28;20202;-57
2023/03/02 10:08:11;;;;;;;35.20;27.10;;;;;;;5.13;86.44;96594.22;5070826;28;20206;-57
2023/03/02 10:10:42;;;;;;;39.27;30.23;;;;;;;4.75;83.54;96603.03;5071311;28;20202;-56
2023/03/02 10:13:19;;;;;;;35.60;27.23;;;;;;;4.83;84.04;96605.94;5071481;28;20206;-56
2023/03/02 10:15:51;;;;;;;34.80;27.17;;;;;;;4.78;83.91;96605.41;5070570;28;20274;-55
2023/03/02 10:18:24;;;;;;;39.13;28.43;;;;;;;4.71;84.28;96606.78;5071070;28;20297;-56
2023/03/02 10:20:54;;;;;;;36.03;27.23;;;;;;;4.76;86.35;96604.69;5069669;28;20230;-55
2023/03/02 10:23:37;;;;;;;38.57;29.57;;;;;;;4.96;86.21;96601.50;5070004;28;20376;-56
2023/03/02 10:26:15;;;;;;;38.80;27.93;;;;;;;5.06;85.74;96603.47;5071387;28;20202;-56
2023/03/02 10:28:43;;;;;;;34.87;27.70;;;;;;;5.16;84.81;96607.94;5071322;28;20206;-56
2023/03/02 10:31:13;;;;;;;38.83;28.90;;;;;;;5.29;85.13;96607.88;5070686;28;20623;-57
2023/03/02 10:33:41;;;;;;;36.67;27.13;;;;;;;5.40;86.15;96607.94;5070285;28;20202;-55
2023/03/02 10:36:18;;;;;;;34.13;25.70;;;;;;;5.50;85.74;96611.53;5070870;28;20252;-57
2023/03/02 10:38:50;;;;;;;35.03;26.97;;;;;;;5.54;84.56;96607.75;5070232;28;20214;-56
2023/03/02 10:41:24;;;;;;;35.80;26.50;;;;;;;5.77;85.17;96612.16;5070862;28;20559;-56
2023/03/02 10:43:52;;;;;;;36.93;29.63;;;;;;;5.79;79.38;96612.84;5071198;28;20280;-56
2023/03/02 10:46:19;;;;;;;37.23;27.20;;;;;;;5.63;82.42;96606.25;5071324;28;20206;-56
2023/03/02 10:48:51;;;;;;;35.40;27.03;;;;;;;5.79;84.61;96604.97;5070288;28;20229;-57
2023/03/02 10:51:22;;;;;;;34.87;26.87;;;;;;;5.80;83.08;96619.78;5069920;28;20194;-57
2023/03/02 10:53:49;;;;;;;31.13;24.70;;;;;;;5.88;84.16;96617.44;5070497;28;20202;-55
2023/03/02 10:56:19;;;;;;;38.77;28.50;;;;;;;5.86;82.22;96615.88;5070702;28;20551;-57
2023/03/02 10:58:46;;;;;;;42.53;29.47;;;;;;;5.71;80.63;96615.22;5070645;28;20556;-57
2023/03/02 11:01:17;;;;;;;36.50;27.93;;;;;;;5.83;81.21;96613.47;5070152;28;20226;-56
2023/03/02 11:03:56;;;;;;;38.40;27.97;;;;;;;5.72;82.89;96616.88;5071137;28;20198;-56
2023/03/02 11:06:22;;;;;;;35.87;27.63;;;;;;;5.75;82.84;96614.03;5072001;28;20299;-57
2023/03/02 11:08:58;;;;;;;40.50;29.30;;;;;;;5.69;81.01;96614.50;5072398;28;20260;-57
2023/03/02 11:11:25;;;;;;;38.83;29.00;;;;;;;5.77;82.13;96625.25;5072560;28;20634;-56
2023/03/02 11:13:53;;;;;;;38.70;27.90;;;;;;;5.67;82.22;96615.56;5076476;28;20213;-57
2023/03/02 11:16:27;;;;;;;38.57;29.07;;;;;;;5.63;81.43;96617.59;5072755;28;20195;-56
2023/03/02 11:18:58;;;;;;;39.73;29.70;;;;;;;5.64;84.09;96619.22;5070877;28;20289;-57
2023/03/02 11:21:30;;;;;;;37.47;28.03;;;;;;;5.76;84.72;96617.50;5070595;28;20295;-56
2023/03/02 11:24:00;;;;;;;38.20;29.13;;;;;;;5.67;83.56;96623.44;5073334;28;20264;-57
2023/03/02 11:26:30;;;;;;;35.90;28.43;;;;;;;5.60;84.79;96625.66;5070460;28;20202;-57
2023/03/02 11:29:00;;;;;;;38.03;27.43;;;;;;;5.65;84.01;96620.91;5070300;28;20222;-57